Details From EGLL - London Heathrow
To TKPK - Saint Kitts Robert L Bradshaw
Flight Number -
Tags Generated
Created
Modified
Stats Distance 3,566 nm / 6,604 km
Max Altitude 0 ft / 0 m
Waypoints 4
Social Downloads 2
Likes 0
Share VATSIM

Download

Looking for another format? Having issues loading an existing format? Contact us
Advertisement - Login to hide

Notes

Generated

Route

EGLL INSUN ELOPO TKPK

ID Type Via Altitude Latitude Longitude Leg Dist Tot Dist Heading (true) Name
O EGLL APT - 0 ft / 0 m 51.46477˚ -0.48695˚ - 0 nm - -
INSUN FIX - 0 ft / 0 m 50.39577˚ -6.32430˚ 230 nm 230 nm 256° / 252° -
ELOPO FIX - 0 ft / 0 m 17.65006˚ -62.55439˚ 3312 nm 3542 nm 255° / 220° -
O TKPK APT - 0 ft / 0 m 17.30550˚ -62.72783˚ 22 nm 3565 nm 206° / 206° -

Altitude Profile

Advertisement - Login to hide

Weather


0- 5 10 15 20 25 30 35+ Temperature / ° C

Clouds and Precipitation
Forecast for 2018-05-26 00:00 UTC. Updated 4 hours ago

Ground ~20,000 ft ~40,000 ft Winds

EGLL

Details ICAO EGLL (LHR)
Name London Heathrow
Region United Kingdom
Timezone Europe/London (UTC+1.0)
Stats Elevation 83 ft / 25 m (AMSL)
Location 51.471218° -0.460978°
Runways 2
Magnetic Variation 0.494° W

METAR

EGLL 260250Z AUTO 04005KT 010V080 2300 HZ BKN004 OVC007 15/14 Q1019 TEMPO BKN005

Decode

TAF

TAF AMD TAF AMD EGLL 260317Z 2603/2706 02005KT 2500 HZ BKN006 TEMPO 2603/2609 BKN004 PROB30 TEMPO 2604/2610 +SHRA BECMG 2609/2612 08012KT 9999 NSW SCT020 PROB40 TEMPO 2620/2706 08015G25KT 3000 +TSRA BKN014 BKN048CB

Decode

Departure Runways

ID Width Length Bearing (true) Bearing (mag) Surface Threshold Offset Overrun Length
09L 164 ft / 50 m 12,811 ft / 3,905 m 89.64° 90.13° Asphalt 1,004 ft / 306 m 0 ft / 0 m
09R 164 ft / 50 m 12,019 ft / 3,663 m 89.67° 90.16° Asphalt 1,007 ft / 307 m 0 ft / 0 m
27L 164 ft / 50 m 12,019 ft / 3,663 m 269.71° 270.20° Asphalt 0 ft / 0 m 69 ft / 21 m
27R 164 ft / 50 m 12,811 ft / 3,905 m 269.69° 270.18° Asphalt 0 ft / 0 m 69 ft / 21 m

TKPK

Details ICAO TKPK (SKB)
Name St. Kitts/Bradshaw Intl
Region Saint Kitts and Nevis
Timezone America/St_Kitts (UTC-4.0)
Stats Elevation 170 ft / 52 m (AMSL)
Location 17.311194° -62.718666°
Runways 1
Magnetic Variation 14.463° W

METAR

Not found

TAF

TAF TKPK 252339Z 2600/2624 08010KT P6SM VCSH SCT020 FM260600 07009KT P6SM VCSH SCT018 SCT030 FM261400 09014KT P6SM SCT022 AMD NOT SKED 2602/2611

Decode

Destination Runways

ID Width Length Bearing (true) Bearing (mag) Surface Threshold Offset Overrun Length
07 148 ft / 45 m 7,620 ft / 2,323 m 56.95° 71.41° Asphalt 200 ft / 61 m 0 ft / 0 m
25 148 ft / 45 m 7,620 ft / 2,323 m 236.95° 251.41° Asphalt 0 ft / 0 m 0 ft / 0 m

Popular Alternatives